sensor_id;sensor_type;location;lat;lon;timestamp;P1;durP1;ratioP1;P2;durP2;ratioP2
4428;SDS011;2227;47.810;8.810;2024-02-23T04:48:01;743.33;;;509.30;;
4428;SDS011;2227;47.810;8.810;2024-02-23T04:50:28;741.58;;;506.83;;
4428;SDS011;2227;47.810;8.810;2024-02-23T04:52:55;738.15;;;506.98;;
4428;SDS011;2227;47.810;8.810;2024-02-23T04:55:22;740.80;;;506.50;;
4428;SDS011;2227;47.810;8.810;2024-02-23T04:57:49;744.40;;;511.10;;
4428;SDS011;2227;47.810;8.810;2024-02-23T05:00:15;736.77;;;506.57;;
4428;SDS011;2227;47.810;8.810;2024-02-23T05:02:43;736.80;;;512.78;;
4428;SDS011;2227;47.810;8.810;2024-02-23T05:05:10;740.83;;;516.25;;
4428;SDS011;2227;47.810;8.810;2024-02-23T05:07:37;747.40;;;515.38;;
4428;SDS011;2227;47.810;8.810;2024-02-23T05:10:04;741.30;;;509.25;;
4428;SDS011;2227;47.810;8.810;2024-02-23T05:12:31;743.88;;;510.00;;
4428;SDS011;2227;47.810;8.810;2024-02-23T05:14:58;745.23;;;516.97;;
4428;SDS011;2227;47.810;8.810;2024-02-23T05:17:25;743.50;;;515.50;;
4428;SDS011;2227;47.810;8.810;2024-02-23T05:19:51;742.03;;;517.50;;
4428;SDS011;2227;47.810;8.810;2024-02-23T05:22:18;748.77;;;521.43;;
4428;SDS011;2227;47.810;8.810;2024-02-23T05:24:45;752.97;;;522.70;;
4428;SDS011;2227;47.810;8.810;2024-02-23T05:27:12;750.85;;;518.53;;
4428;SDS011;2227;47.810;8.810;2024-02-23T05:29:39;754.85;;;528.25;;
4428;SDS011;2227;47.810;8.810;2024-02-23T05:32:05;754.03;;;519.05;;
4428;SDS011;2227;47.810;8.810;2024-02-23T05:34:33;759.95;;;524.60;;
4428;SDS011;2227;47.810;8.810;2024-02-23T05:37:01;753.45;;;518.13;;
4428;SDS011;2227;47.810;8.810;2024-02-23T05:39:28;750.92;;;510.58;;
4428;SDS011;2227;47.810;8.810;2024-02-23T05:41:55;751.78;;;516.53;;
4428;SDS011;2227;47.810;8.810;2024-02-23T05:44:23;752.20;;;510.25;;
4428;SDS011;2227;47.810;8.810;2024-02-23T05:46:50;751.50;;;508.83;;
4428;SDS011;2227;47.810;8.810;2024-02-23T05:49:17;749.75;;;510.95;;
4428;SDS011;2227;47.810;8.810;2024-02-23T05:51:43;752.15;;;515.80;;
4428;SDS011;2227;47.810;8.810;2024-02-23T05:54:10;752.10;;;511.30;;
4428;SDS011;2227;47.810;8.810;2024-02-23T05:56:37;758.60;;;514.10;;
4428;SDS011;2227;47.810;8.810;2024-02-23T05:59:04;758.63;;;510.95;;
4428;SDS011;2227;47.810;8.810;2024-02-23T06:01:32;752.92;;;507.13;;
4428;SDS011;2227;47.810;8.810;2024-02-23T06:03:59;757.55;;;514.30;;
4428;SDS011;2227;47.810;8.810;2024-02-23T06:06:25;754.87;;;505.80;;
4428;SDS011;2227;47.810;8.810;2024-02-23T06:08:53;766.03;;;515.60;;
4428;SDS011;2227;47.810;8.810;2024-02-23T06:11:20;765.97;;;513.03;;
4428;SDS011;2227;47.810;8.810;2024-02-23T06:13:47;766.27;;;513.10;;
4428;SDS011;2227;47.810;8.810;2024-02-23T06:16:14;761.75;;;506.70;;
4428;SDS011;2227;47.810;8.810;2024-02-23T06:18:40;762.28;;;505.92;;
4428;SDS011;2227;47.810;8.810;2024-02-23T06:21:13;758.33;;;504.52;;
4428;SDS011;2227;47.810;8.810;2024-02-23T06:23:41;759.67;;;508.25;;
4428;SDS011;2227;47.810;8.810;2024-02-23T06:26:08;757.17;;;505.15;;
4428;SDS011;2227;47.810;8.810;2024-02-23T06:28:35;757.37;;;507.70;;
4428;SDS011;2227;47.810;8.810;2024-02-23T06:31:08;749.80;;;503.37;;
4428;SDS011;2227;47.810;8.810;2024-02-23T06:33:35;750.75;;;509.25;;
4428;SDS011;2227;47.810;8.810;2024-02-23T06:36:02;756.00;;;505.63;;
4428;SDS011;2227;47.810;8.810;2024-02-23T06:38:30;756.00;;;508.88;;
4428;SDS011;2227;47.810;8.810;2024-02-23T06:40:57;760.72;;;507.00;;
4428;SDS011;2227;47.810;8.810;2024-02-23T06:43:24;759.50;;;506.95;;
4428;SDS011;2227;47.810;8.810;2024-02-23T06:45:51;753.35;;;506.88;;
4428;SDS011;2227;47.810;8.810;2024-02-23T06:48:18;762.13;;;508.95;;
4428;SDS011;2227;47.810;8.810;2024-02-23T06:50:45;748.45;;;499.60;;
4428;SDS011;2227;47.810;8.810;2024-02-23T06:53:12;752.33;;;506.83;;
4428;SDS011;2227;47.810;8.810;2024-02-23T06:55:38;749.30;;;502.75;;
4428;SDS011;2227;47.810;8.810;2024-02-23T06:58:05;759.60;;;510.05;;
4428;SDS011;2227;47.810;8.810;2024-02-23T07:00:33;752.63;;;501.90;;
4428;SDS011;2227;47.810;8.810;2024-02-23T07:03:00;756.83;;;506.17;;
4428;SDS011;2227;47.810;8.810;2024-02-23T07:05:30;749.53;;;498.25;;
4428;SDS011;2227;47.810;8.810;2024-02-23T07:07:57;755.42;;;503.02;;
4428;SDS011;2227;47.810;8.810;2024-02-23T07:10:24;750.58;;;506.42;;
4428;SDS011;2227;47.810;8.810;2024-02-23T07:12:51;749.90;;;507.67;;
4428;SDS011;2227;47.810;8.810;2024-02-23T07:15:22;754.72;;;506.95;;
4428;SDS011;2227;47.810;8.810;2024-02-23T07:17:50;763.38;;;511.90;;
4428;SDS011;2227;47.810;8.810;2024-02-23T07:20:18;755.53;;;505.17;;
4428;SDS011;2227;47.810;8.810;2024-02-23T07:22:45;756.58;;;502.67;;
4428;SDS011;2227;47.810;8.810;2024-02-23T07:25:19;753.83;;;503.27;;
4428;SDS011;2227;47.810;8.810;2024-02-23T07:27:47;764.72;;;510.38;;
4428;SDS011;2227;47.810;8.810;2024-02-23T07:30:17;760.53;;;506.67;;
4428;SDS011;2227;47.810;8.810;2024-02-23T07:32:43;765.08;;;511.08;;
4428;SDS011;2227;47.810;8.810;2024-02-23T07:35:15;758.50;;;506.90;;
4428;SDS011;2227;47.810;8.810;2024-02-23T07:37:41;783.88;;;517.63;;
4428;SDS011;2227;47.810;8.810;2024-02-23T07:40:08;759.55;;;505.60;;
4428;SDS011;2227;47.810;8.810;2024-02-23T07:42:35;758.42;;;507.13;;
4428;SDS011;2227;47.810;8.810;2024-02-23T07:45:03;755.90;;;509.07;;
4428;SDS011;2227;47.810;8.810;2024-02-23T07:47:30;753.15;;;506.30;;
4428;SDS011;2227;47.810;8.810;2024-02-23T07:49:58;749.20;;;506.58;;
4428;SDS011;2227;47.810;8.810;2024-02-23T07:52:25;747.35;;;508.92;;
4428;SDS011;2227;47.810;8.810;2024-02-23T07:54:52;747.50;;;508.67;;
4428;SDS011;2227;47.810;8.810;2024-02-23T07:57:19;749.45;;;513.28;;
4428;SDS011;2227;47.810;8.810;2024-02-23T07:59:46;748.38;;;515.42;;
4428;SDS011;2227;47.810;8.810;2024-02-23T08:02:14;747.13;;;513.58;;
4428;SDS011;2227;47.810;8.810;2024-02-23T08:04:41;743.92;;;516.78;;
4428;SDS011;2227;47.810;8.810;2024-02-23T08:07:08;748.28;;;516.05;;
4428;SDS011;2227;47.810;8.810;2024-02-23T08:09:36;749.22;;;518.70;;
4428;SDS011;2227;47.810;8.810;2024-02-23T08:12:03;742.08;;;515.90;;
4428;SDS011;2227;47.810;8.810;2024-02-23T08:14:31;755.00;;;519.40;;
4428;SDS011;2227;47.810;8.810;2024-02-23T08:16:59;748.63;;;518.08;;
4428;SDS011;2227;47.810;8.810;2024-02-23T08:19:25;754.08;;;521.00;;
4428;SDS011;2227;47.810;8.810;2024-02-23T08:21:52;750.63;;;512.65;;
4428;SDS011;2227;47.810;8.810;2024-02-23T08:24:19;745.60;;;516.15;;
4428;SDS011;2227;47.810;8.810;2024-02-23T08:26:46;751.60;;;521.95;;
4428;SDS011;2227;47.810;8.810;2024-02-23T08:29:13;747.92;;;512.78;;
4428;SDS011;2227;47.810;8.810;2024-02-23T08:31:39;752.15;;;514.72;;
4428;SDS011;2227;47.810;8.810;2024-02-23T08:34:08;745.63;;;508.37;;
4428;SDS011;2227;47.810;8.810;2024-02-23T08:36:34;744.55;;;512.70;;
4428;SDS011;2227;47.810;8.810;2024-02-23T08:39:01;749.17;;;514.85;;
4428;SDS011;2227;47.810;8.810;2024-02-23T08:41:29;746.90;;;519.30;;
4428;SDS011;2227;47.810;8.810;2024-02-23T08:43:56;751.80;;;521.45;;
4428;SDS011;2227;47.810;8.810;2024-02-23T08:46:23;750.92;;;519.58;;
4428;SDS011;2227;47.810;8.810;2024-02-23T08:48:50;746.53;;;515.85;;
4428;SDS011;2227;47.810;8.810;2024-02-23T08:51:16;752.03;;;524.25;;
4428;SDS011;2227;47.810;8.810;2024-02-23T08:53:43;754.60;;;520.50;;
4428;SDS011;2227;47.810;8.810;2024-02-23T08:56:11;749.92;;;521.35;;
4428;SDS011;2227;47.810;8.810;2024-02-23T08:58:38;749.60;;;530.85;;
4428;SDS011;2227;47.810;8.810;2024-02-23T09:01:05;750.42;;;543.35;;
4428;SDS011;2227;47.810;8.810;2024-02-23T09:03:32;756.90;;;546.42;;
4428;SDS011;2227;47.810;8.810;2024-02-23T09:05:58;761.38;;;546.75;;
4428;SDS011;2227;47.810;8.810;2024-02-23T09:08:25;762.67;;;554.45;;
4428;SDS011;2227;47.810;8.810;2024-02-23T09:10:52;756.85;;;533.33;;
4428;SDS011;2227;47.810;8.810;2024-02-23T09:13:19;756.33;;;527.60;;
4428;SDS011;2227;47.810;8.810;2024-02-23T09:15:46;758.65;;;540.25;;
4428;SDS011;2227;47.810;8.810;2024-02-23T09:18:12;751.73;;;528.57;;
4428;SDS011;2227;47.810;8.810;2024-02-23T09:20:39;751.60;;;532.42;;
4428;SDS011;2227;47.810;8.810;2024-02-23T09:23:06;747.70;;;529.37;;
4428;SDS011;2227;47.810;8.810;2024-02-23T09:25:33;754.97;;;549.58;;
4428;SDS011;2227;47.810;8.810;2024-02-23T09:28:00;758.45;;;552.33;;
4428;SDS011;2227;47.810;8.810;2024-02-23T09:30:27;758.67;;;542.38;;
4428;SDS011;2227;47.810;8.810;2024-02-23T09:32:53;761.28;;;548.05;;
4428;SDS011;2227;47.810;8.810;2024-02-23T09:35:21;762.22;;;549.35;;
4428;SDS011;2227;47.810;8.810;2024-02-23T09:37:47;759.45;;;543.30;;
4428;SDS011;2227;47.810;8.810;2024-02-23T09:40:14;759.45;;;537.78;;
4428;SDS011;2227;47.810;8.810;2024-02-23T09:42:42;762.78;;;549.75;;
4428;SDS011;2227;47.810;8.810;2024-02-23T09:45:13;758.10;;;541.42;;
4428;SDS011;2227;47.810;8.810;2024-02-23T09:47:40;756.60;;;528.58;;
4428;SDS011;2227;47.810;8.810;2024-02-23T09:50:07;760.28;;;541.28;;
4428;SDS011;2227;47.810;8.810;2024-02-23T09:52:35;758.53;;;536.00;;
4428;SDS011;2227;47.810;8.810;2024-02-23T09:55:02;761.78;;;545.63;;
4428;SDS011;2227;47.810;8.810;2024-02-23T09:57:30;760.65;;;551.03;;
4428;SDS011;2227;47.810;8.810;2024-02-23T09:59:56;762.50;;;553.47;;
4428;SDS011;2227;47.810;8.810;2024-02-23T10:02:24;765.75;;;554.78;;
4428;SDS011;2227;47.810;8.810;2024-02-23T10:04:51;763.67;;;549.00;;
4428;SDS011;2227;47.810;8.810;2024-02-23T10:07:22;768.65;;;561.08;;
4428;SDS011;2227;47.810;8.810;2024-02-23T10:09:52;773.22;;;547.60;;
4428;SDS011;2227;47.810;8.810;2024-02-23T10:12:19;766.95;;;547.25;;
4428;SDS011;2227;47.810;8.810;2024-02-23T10:14:46;767.67;;;551.00;;
4428;SDS011;2227;47.810;8.810;2024-02-23T10:17:13;766.77;;;550.67;;
4428;SDS011;2227;47.810;8.810;2024-02-23T10:19:40;764.17;;;545.22;;
4428;SDS011;2227;47.810;8.810;2024-02-23T10:22:06;777.95;;;547.83;;
4428;SDS011;2227;47.810;8.810;2024-02-23T10:24:33;770.13;;;551.17;;
4428;SDS011;2227;47.810;8.810;2024-02-23T10:27:00;765.95;;;554.38;;
4428;SDS011;2227;47.810;8.810;2024-02-23T10:29:28;768.35;;;557.55;;
4428;SDS011;2227;47.810;8.810;2024-02-23T10:31:56;769.38;;;558.25;;
4428;SDS011;2227;47.810;8.810;2024-02-23T10:34:24;769.28;;;556.75;;
4428;SDS011;2227;47.810;8.810;2024-02-23T10:36:54;763.50;;;556.85;;
4428;SDS011;2227;47.810;8.810;2024-02-23T10:39:22;755.50;;;549.83;;
4428;SDS011;2227;47.810;8.810;2024-02-23T10:42:02;760.15;;;555.13;;
4428;SDS011;2227;47.810;8.810;2024-02-23T10:44:30;775.25;;;561.10;;
4428;SDS011;2227;47.810;8.810;2024-02-23T10:46:58;768.80;;;559.60;;
4428;SDS011;2227;47.810;8.810;2024-02-23T10:49:29;766.60;;;556.05;;
4428;SDS011;2227;47.810;8.810;2024-02-23T10:51:57;765.57;;;557.50;;
4428;SDS011;2227;47.810;8.810;2024-02-23T10:54:24;768.73;;;571.07;;
4428;SDS011;2227;47.810;8.810;2024-02-23T10:56:52;768.20;;;566.25;;
4428;SDS011;2227;47.810;8.810;2024-02-23T10:59:22;773.25;;;571.90;;
4428;SDS011;2227;47.810;8.810;2024-02-23T11:01:50;774.40;;;572.95;;
4428;SDS011;2227;47.810;8.810;2024-02-23T11:04:19;771.42;;;561.60;;
4428;SDS011;2227;47.810;8.810;2024-02-23T11:07:12;771.10;;;561.83;;
4428;SDS011;2227;47.810;8.810;2024-02-23T11:09:40;771.78;;;559.88;;
4428;SDS011;2227;47.810;8.810;2024-02-23T11:12:07;773.35;;;567.00;;
4428;SDS011;2227;47.810;8.810;2024-02-23T11:14:36;771.03;;;562.55;;
4428;SDS011;2227;47.810;8.810;2024-02-23T11:17:04;765.60;;;562.40;;
4428;SDS011;2227;47.810;8.810;2024-02-23T11:19:32;763.25;;;559.63;;
4428;SDS011;2227;47.810;8.810;2024-02-23T11:22:04;761.25;;;562.08;;
4428;SDS011;2227;47.810;8.810;2024-02-23T11:24:41;761.08;;;556.67;;
4428;SDS011;2227;47.810;8.810;2024-02-23T11:27:14;764.50;;;556.63;;
4428;SDS011;2227;47.810;8.810;2024-02-23T11:29:46;763.17;;;564.27;;
4428;SDS011;2227;47.810;8.810;2024-02-23T11:32:15;769.87;;;571.10;;
4428;SDS011;2227;47.810;8.810;2024-02-23T11:34:56;768.37;;;572.53;;
4428;SDS011;2227;47.810;8.810;2024-02-23T11:37:23;778.00;;;571.25;;
4428;SDS011;2227;47.810;8.810;2024-02-23T11:39:54;769.88;;;566.10;;
4428;SDS011;2227;47.810;8.810;2024-02-23T11:42:22;763.75;;;574.63;;
4428;SDS011;2227;47.810;8.810;2024-02-23T11:44:50;761.38;;;575.92;;
4428;SDS011;2227;47.810;8.810;2024-02-23T11:47:19;766.05;;;586.38;;
4428;SDS011;2227;47.810;8.810;2024-02-23T11:49:46;762.78;;;600.13;;
4428;SDS011;2227;47.810;8.810;2024-02-23T11:52:13;766.90;;;608.22;;
4428;SDS011;2227;47.810;8.810;2024-02-23T11:54:40;766.50;;;615.45;;
4428;SDS011;2227;47.810;8.810;2024-02-23T11:57:07;765.88;;;627.90;;
4428;SDS011;2227;47.810;8.810;2024-02-23T11:59:34;772.85;;;609.85;;
4428;SDS011;2227;47.810;8.810;2024-02-23T12:02:01;783.92;;;605.97;;
4428;SDS011;2227;47.810;8.810;2024-02-23T12:04:31;779.55;;;599.65;;
4428;SDS011;2227;47.810;8.810;2024-02-23T12:06:58;776.17;;;589.78;;
4428;SDS011;2227;47.810;8.810;2024-02-23T12:09:24;778.05;;;593.30;;
4428;SDS011;2227;47.810;8.810;2024-02-23T12:11:51;773.25;;;588.10;;
4428;SDS011;2227;47.810;8.810;2024-02-23T12:14:19;772.58;;;593.53;;
4428;SDS011;2227;47.810;8.810;2024-02-23T12:16:45;768.17;;;600.08;;
4428;SDS011;2227;47.810;8.810;2024-02-23T12:19:12;767.77;;;602.33;;
4428;SDS011;2227;47.810;8.810;2024-02-23T12:21:41;771.63;;;606.40;;
4428;SDS011;2227;47.810;8.810;2024-02-23T12:24:12;775.90;;;600.47;;
4428;SDS011;2227;47.810;8.810;2024-02-23T12:26:38;772.35;;;597.13;;
4428;SDS011;2227;47.810;8.810;2024-02-23T12:29:05;773.95;;;592.47;;
4428;SDS011;2227;47.810;8.810;2024-02-23T12:31:32;777.33;;;591.35;;
4428;SDS011;2227;47.810;8.810;2024-02-23T12:33:59;776.27;;;587.40;;
4428;SDS011;2227;47.810;8.810;2024-02-23T12:36:27;770.80;;;585.38;;
4428;SDS011;2227;47.810;8.810;2024-02-23T12:38:54;764.45;;;587.78;;
4428;SDS011;2227;47.810;8.810;2024-02-23T12:41:21;765.30;;;585.28;;
4428;SDS011;2227;47.810;8.810;2024-02-23T12:43:49;763.08;;;591.92;;
4428;SDS011;2227;47.810;8.810;2024-02-23T12:46:16;762.10;;;600.65;;
4428;SDS011;2227;47.810;8.810;2024-02-23T12:48:43;764.50;;;602.15;;
4428;SDS011;2227;47.810;8.810;2024-02-23T12:51:10;767.07;;;601.47;;
4428;SDS011;2227;47.810;8.810;2024-02-23T12:53:37;764.47;;;594.65;;
4428;SDS011;2227;47.810;8.810;2024-02-23T12:56:09;761.88;;;604.00;;
4428;SDS011;2227;47.810;8.810;2024-02-23T12:58:40;761.08;;;601.95;;
4428;SDS011;2227;47.810;8.810;2024-02-23T13:01:08;761.78;;;597.65;;
4428;SDS011;2227;47.810;8.810;2024-02-23T13:03:36;767.65;;;600.50;;
4428;SDS011;2227;47.810;8.810;2024-02-23T13:06:04;773.50;;;602.87;;
4428;SDS011;2227;47.810;8.810;2024-02-23T13:08:31;794.13;;;595.73;;
4428;SDS011;2227;47.810;8.810;2024-02-23T13:10:59;772.92;;;589.33;;
4428;SDS011;2227;47.810;8.810;2024-02-23T13:13:26;784.20;;;588.15;;
4428;SDS011;2227;47.810;8.810;2024-02-23T13:15:53;771.72;;;579.58;;
4428;SDS011;2227;47.810;8.810;2024-02-23T13:18:20;779.03;;;586.57;;
4428;SDS011;2227;47.810;8.810;2024-02-23T13:20:48;769.63;;;579.58;;
4428;SDS011;2227;47.810;8.810;2024-02-23T13:23:16;769.10;;;579.35;;
4428;SDS011;2227;47.810;8.810;2024-02-23T13:25:43;767.20;;;577.58;;
4428;SDS011;2227;47.810;8.810;2024-02-23T13:28:10;770.57;;;577.43;;
4428;SDS011;2227;47.810;8.810;2024-02-23T13:30:37;768.90;;;568.67;;
4428;SDS011;2227;47.810;8.810;2024-02-23T13:33:05;770.58;;;571.15;;
4428;SDS011;2227;47.810;8.810;2024-02-23T13:35:34;760.85;;;571.50;;
4428;SDS011;2227;47.810;8.810;2024-02-23T13:38:01;768.70;;;576.75;;
4428;SDS011;2227;47.810;8.810;2024-02-23T13:40:31;763.67;;;577.97;;
4428;SDS011;2227;47.810;8.810;2024-02-23T13:42:58;763.70;;;579.75;;
4428;SDS011;2227;47.810;8.810;2024-02-23T13:45:25;771.28;;;580.22;;
4428;SDS011;2227;47.810;8.810;2024-02-23T13:47:59;769.22;;;577.72;;
4428;SDS011;2227;47.810;8.810;2024-02-23T13:50:28;763.63;;;579.22;;
4428;SDS011;2227;47.810;8.810;2024-02-23T13:52:55;760.83;;;577.13;;
4428;SDS011;2227;47.810;8.810;2024-02-23T13:55:23;773.05;;;580.95;;
4428;SDS011;2227;47.810;8.810;2024-02-23T13:57:50;769.33;;;582.28;;
4428;SDS011;2227;47.810;8.810;2024-02-23T14:00:17;767.55;;;582.78;;
4428;SDS011;2227;47.810;8.810;2024-02-23T14:02:45;769.70;;;584.20;;
4428;SDS011;2227;47.810;8.810;2024-02-23T14:05:13;764.42;;;593.55;;
4428;SDS011;2227;47.810;8.810;2024-02-23T14:07:41;772.22;;;596.50;;
4428;SDS011;2227;47.810;8.810;2024-02-23T14:10:08;769.53;;;601.08;;
4428;SDS011;2227;47.810;8.810;2024-02-23T14:12:35;777.03;;;597.47;;
4428;SDS011;2227;47.810;8.810;2024-02-23T14:15:02;781.10;;;597.25;;
4428;SDS011;2227;47.810;8.810;2024-02-23T14:17:31;771.55;;;592.75;;
4428;SDS011;2227;47.810;8.810;2024-02-23T14:19:57;772.67;;;593.35;;
4428;SDS011;2227;47.810;8.810;2024-02-23T14:22:24;776.25;;;596.33;;
4428;SDS011;2227;47.810;8.810;2024-02-23T14:24:51;772.15;;;593.60;;
4428;SDS011;2227;47.810;8.810;2024-02-23T14:27:18;767.83;;;598.15;;
4428;SDS011;2227;47.810;8.810;2024-02-23T14:29:45;769.67;;;598.63;;
4428;SDS011;2227;47.810;8.810;2024-02-23T14:32:14;775.35;;;601.15;;
4428;SDS011;2227;47.810;8.810;2024-02-23T14:34:43;778.90;;;602.95;;
4428;SDS011;2227;47.810;8.810;2024-02-23T14:37:10;779.93;;;601.33;;
4428;SDS011;2227;47.810;8.810;2024-02-23T14:39:37;778.58;;;598.92;;
4428;SDS011;2227;47.810;8.810;2024-02-23T14:42:04;782.40;;;599.80;;
4428;SDS011;2227;47.810;8.810;2024-02-23T14:44:31;774.17;;;588.65;;
4428;SDS011;2227;47.810;8.810;2024-02-23T14:46:58;780.55;;;589.60;;
4428;SDS011;2227;47.810;8.810;2024-02-23T14:49:25;780.80;;;589.75;;
4428;SDS011;2227;47.810;8.810;2024-02-23T14:51:51;778.17;;;589.40;;
4428;SDS011;2227;47.810;8.810;2024-02-23T14:54:18;777.33;;;590.88;;
4428;SDS011;2227;47.810;8.810;2024-02-23T14:56:45;774.97;;;593.30;;
4428;SDS011;2227;47.810;8.810;2024-02-23T14:59:13;776.33;;;599.45;;
4428;SDS011;2227;47.810;8.810;2024-02-23T15:01:40;759.47;;;610.85;;
4428;SDS011;2227;47.810;8.810;2024-02-23T15:04:09;763.42;;;616.67;;
4428;SDS011;2227;47.810;8.810;2024-02-23T15:06:36;761.55;;;605.40;;
4428;SDS011;2227;47.810;8.810;2024-02-23T15:09:04;763.58;;;625.10;;
4428;SDS011;2227;47.810;8.810;2024-02-23T15:11:31;769.05;;;650.92;;
4428;SDS011;2227;47.810;8.810;2024-02-23T15:13:58;770.78;;;667.55;;
4428;SDS011;2227;47.810;8.810;2024-02-23T15:16:27;770.83;;;669.47;;
4428;SDS011;2227;47.810;8.810;2024-02-23T15:18:54;788.70;;;679.80;;
4428;SDS011;2227;47.810;8.810;2024-02-23T15:21:21;784.53;;;689.58;;
4428;SDS011;2227;47.810;8.810;2024-02-23T15:23:48;796.40;;;708.67;;
4428;SDS011;2227;47.810;8.810;2024-02-23T15:26:15;813.55;;;725.47;;
4428;SDS011;2227;47.810;8.810;2024-02-23T15:28:42;818.72;;;729.63;;
4428;SDS011;2227;47.810;8.810;2024-02-23T15:31:08;819.35;;;729.85;;
4428;SDS011;2227;47.810;8.810;2024-02-23T15:33:35;818.63;;;729.08;;
4428;SDS011;2227;47.810;8.810;2024-02-23T15:36:05;796.88;;;685.10;;
4428;SDS011;2227;47.810;8.810;2024-02-23T15:38:35;813.58;;;676.20;;
4428;SDS011;2227;47.810;8.810;2024-02-23T15:41:03;801.95;;;655.85;;
4428;SDS011;2227;47.810;8.810;2024-02-23T15:43:31;792.63;;;661.08;;
4428;SDS011;2227;47.810;8.810;2024-02-23T15:45:58;799.13;;;651.70;;
4428;SDS011;2227;47.810;8.810;2024-02-23T15:48:25;803.85;;;651.50;;
4428;SDS011;2227;47.810;8.810;2024-02-23T15:50:52;806.13;;;646.25;;
4428;SDS011;2227;47.810;8.810;2024-02-23T15:53:39;805.93;;;638.63;;
4428;SDS011;2227;47.810;8.810;2024-02-23T15:56:06;802.90;;;610.42;;
4428;SDS011;2227;47.810;8.810;2024-02-23T15:58:33;796.25;;;605.83;;
4428;SDS011;2227;47.810;8.810;2024-02-23T16:01:00;784.13;;;604.95;;
4428;SDS011;2227;47.810;8.810;2024-02-23T16:03:27;780.47;;;601.78;;
4428;SDS011;2227;47.810;8.810;2024-02-23T16:05:53;778.67;;;597.40;;
4428;SDS011;2227;47.810;8.810;2024-02-23T16:08:42;781.63;;;590.05;;
4428;SDS011;2227;47.810;8.810;2024-02-23T16:11:09;785.45;;;601.20;;
4428;SDS011;2227;47.810;8.810;2024-02-23T16:13:38;784.35;;;590.95;;
4428;SDS011;2227;47.810;8.810;2024-02-23T16:16:05;783.83;;;596.53;;
4428;SDS011;2227;47.810;8.810;2024-02-23T16:18:34;778.28;;;588.10;;
4428;SDS011;2227;47.810;8.810;2024-02-23T16:21:01;775.50;;;589.25;;
4428;SDS011;2227;47.810;8.810;2024-02-23T16:23:28;780.75;;;594.60;;
4428;SDS011;2227;47.810;8.810;2024-02-23T16:25:55;777.83;;;586.30;;
4428;SDS011;2227;47.810;8.810;2024-02-23T16:28:23;779.03;;;587.58;;
4428;SDS011;2227;47.810;8.810;2024-02-23T16:30:49;784.28;;;587.72;;
4428;SDS011;2227;47.810;8.810;2024-02-23T16:33:16;781.17;;;584.10;;
4428;SDS011;2227;47.810;8.810;2024-02-23T16:35:43;779.00;;;586.40;;
4428;SDS011;2227;47.810;8.810;2024-02-23T16:38:10;785.63;;;590.63;;
4428;SDS011;2227;47.810;8.810;2024-02-23T16:40:37;786.08;;;589.95;;
4428;SDS011;2227;47.810;8.810;2024-02-23T16:43:05;788.83;;;583.20;;
4428;SDS011;2227;47.810;8.810;2024-02-23T16:45:32;783.22;;;579.80;;
4428;SDS011;2227;47.810;8.810;2024-02-23T16:47:59;778.20;;;572.70;;
4428;SDS011;2227;47.810;8.810;2024-02-23T17:05:07;777.90;;;570.10;;
4428;SDS011;2227;47.810;8.810;2024-02-23T17:07:34;781.38;;;575.25;;
4428;SDS011;2227;47.810;8.810;2024-02-23T17:10:02;782.60;;;569.15;;
4428;SDS011;2227;47.810;8.810;2024-02-23T17:12:29;781.13;;;570.03;;
4428;SDS011;2227;47.810;8.810;2024-02-23T17:14:56;780.40;;;565.88;;
4428;SDS011;2227;47.810;8.810;2024-02-23T17:17:24;779.00;;;566.50;;
4428;SDS011;2227;47.810;8.810;2024-02-23T17:19:52;780.63;;;564.15;;
4428;SDS011;2227;47.810;8.810;2024-02-23T17:22:18;781.88;;;565.28;;
4428;SDS011;2227;47.810;8.810;2024-02-23T17:24:47;784.58;;;564.72;;
4428;SDS011;2227;47.810;8.810;2024-02-23T17:27:16;782.65;;;564.30;;
4428;SDS011;2227;47.810;8.810;2024-02-23T17:29:43;777.58;;;557.65;;
4428;SDS011;2227;47.810;8.810;2024-02-23T17:32:09;779.83;;;561.13;;
4428;SDS011;2227;47.810;8.810;2024-02-23T17:34:36;782.63;;;562.60;;
4428;SDS011;2227;47.810;8.810;2024-02-23T17:37:03;784.60;;;568.75;;
4428;SDS011;2227;47.810;8.810;2024-02-23T17:39:33;784.25;;;568.15;;
4428;SDS011;2227;47.810;8.810;2024-02-23T17:41:59;787.33;;;570.25;;
4428;SDS011;2227;47.810;8.810;2024-02-23T17:44:26;784.47;;;567.17;;
4428;SDS011;2227;47.810;8.810;2024-02-23T17:46:54;788.28;;;567.90;;
4428;SDS011;2227;47.810;8.810;2024-02-23T17:49:21;790.27;;;571.87;;
4428;SDS011;2227;47.810;8.810;2024-02-23T17:51:48;789.63;;;571.42;;
4428;SDS011;2227;47.810;8.810;2024-02-23T17:54:14;794.58;;;576.90;;
4428;SDS011;2227;47.810;8.810;2024-02-23T17:56:41;790.85;;;575.65;;
4428;SDS011;2227;47.810;8.810;2024-02-23T17:59:08;788.58;;;574.10;;
4428;SDS011;2227;47.810;8.810;2024-02-23T18:01:35;786.80;;;565.60;;
4428;SDS011;2227;47.810;8.810;2024-02-23T18:04:04;794.53;;;570.72;;
4428;SDS011;2227;47.810;8.810;2024-02-23T18:06:32;790.25;;;570.03;;
4428;SDS011;2227;47.810;8.810;2024-02-23T18:08:59;787.80;;;565.13;;
4428;SDS011;2227;47.810;8.810;2024-02-23T18:11:26;789.70;;;567.57;;
4428;SDS011;2227;47.810;8.810;2024-02-23T18:13:53;789.13;;;568.33;;
4428;SDS011;2227;47.810;8.810;2024-02-23T18:16:21;791.40;;;570.20;;
4428;SDS011;2227;47.810;8.810;2024-02-23T18:18:51;790.70;;;566.67;;
4428;SDS011;2227;47.810;8.810;2024-02-23T18:21:18;793.15;;;568.25;;
4428;SDS011;2227;47.810;8.810;2024-02-23T18:23:45;792.50;;;566.83;;
4428;SDS011;2227;47.810;8.810;2024-02-23T18:26:12;792.70;;;566.72;;
4428;SDS011;2227;47.810;8.810;2024-02-23T18:28:40;792.03;;;567.15;;
4428;SDS011;2227;47.810;8.810;2024-02-23T18:31:07;792.42;;;574.55;;
4428;SDS011;2227;47.810;8.810;2024-02-23T18:33:35;789.72;;;569.15;;
4428;SDS011;2227;47.810;8.810;2024-02-23T18:36:02;787.00;;;567.80;;
4428;SDS011;2227;47.810;8.810;2024-02-23T18:38:29;782.08;;;566.58;;
4428;SDS011;2227;47.810;8.810;2024-02-23T18:40:57;780.55;;;570.65;;
4428;SDS011;2227;47.810;8.810;2024-02-23T18:43:25;782.42;;;564.20;;
4428;SDS011;2227;47.810;8.810;2024-02-23T18:45:52;781.45;;;562.90;;
4428;SDS011;2227;47.810;8.810;2024-02-23T18:48:19;783.60;;;565.63;;
4428;SDS011;2227;47.810;8.810;2024-02-23T18:50:46;787.92;;;564.33;;
4428;SDS011;2227;47.810;8.810;2024-02-23T18:53:14;784.33;;;561.33;;
4428;SDS011;2227;47.810;8.810;2024-02-23T18:55:41;783.08;;;554.15;;
4428;SDS011;2227;47.810;8.810;2024-02-23T18:58:07;784.80;;;549.03;;
4428;SDS011;2227;47.810;8.810;2024-02-23T19:00:34;783.17;;;542.83;;
4428;SDS011;2227;47.810;8.810;2024-02-23T19:03:01;779.75;;;544.92;;
4428;SDS011;2227;47.810;8.810;2024-02-23T19:05:28;779.28;;;542.38;;
4428;SDS011;2227;47.810;8.810;2024-02-23T19:07:55;776.15;;;526.75;;
4428;SDS011;2227;47.810;8.810;2024-02-23T19:10:22;781.15;;;539.55;;
4428;SDS011;2227;47.810;8.810;2024-02-23T19:12:49;776.20;;;531.50;;
4428;SDS011;2227;47.810;8.810;2024-02-23T19:15:16;783.78;;;533.95;;
4428;SDS011;2227;47.810;8.810;2024-02-23T19:17:42;777.27;;;525.80;;
4428;SDS011;2227;47.810;8.810;2024-02-23T19:20:10;776.63;;;522.90;;
4428;SDS011;2227;47.810;8.810;2024-02-23T19:22:37;774.22;;;525.45;;
4428;SDS011;2227;47.810;8.810;2024-02-23T19:25:05;773.80;;;517.08;;